Levan, Illinois
Current Conditions -  °F | °C
As of 9:30 PM on Monday 22 Dec 2014 (Local Time) from KMDH Reporting Station
Overcast Overcast  
Wind Chill: 52°   Ceiling: 1000
Heat Index: 52°   Visibility: 10mi
Dew Point: 50°   Wind: 12mph
Humidity: 93%   Direction: 180°S
Pressure: 29.59"   Gusts: NA
Location:  37.776°N, 89.3234°W
Report Text: KMDH 230330Z AUTO 18010KT 10SM OVC010 11/10 A2959 RMK AO2 RAE0257 CIG 007V014 P0000 T01110100
Loading
Personal Weather Stations






























Interactive Weather Map New forecast layout! Learn more

10-Day Weather Forecast

Advertisements
Track Severe Weather on mobile